sensor_id;sensor_type;location;lat;lon;timestamp;temperature;humidity
70734;DHT22;58320;48.804;9.252;2024-02-26T00:01:42;7.40;66.90
70734;DHT22;58320;48.804;9.252;2024-02-26T00:04:12;7.40;67.10
70734;DHT22;58320;48.804;9.252;2024-02-26T00:06:41;7.40;67.00
70734;DHT22;58320;48.804;9.252;2024-02-26T00:09:07;7.40;67.10
70734;DHT22;58320;48.804;9.252;2024-02-26T00:11:35;7.40;66.10
70734;DHT22;58320;48.804;9.252;2024-02-26T00:14:01;7.40;66.20
70734;DHT22;58320;48.804;9.252;2024-02-26T00:16:27;7.50;65.40
70734;DHT22;58320;48.804;9.252;2024-02-26T00:18:53;7.50;64.90
70734;DHT22;58320;48.804;9.252;2024-02-26T00:21:18;7.50;64.50
70734;DHT22;58320;48.804;9.252;2024-02-26T00:23:44;7.60;64.60
70734;DHT22;58320;48.804;9.252;2024-02-26T00:26:10;7.60;64.30
70734;DHT22;58320;48.804;9.252;2024-02-26T00:28:36;7.60;64.30
70734;DHT22;58320;48.804;9.252;2024-02-26T00:31:02;7.60;64.30
70734;DHT22;58320;48.804;9.252;2024-02-26T00:33:28;7.60;64.60
70734;DHT22;58320;48.804;9.252;2024-02-26T00:35:54;7.60;64.70
70734;DHT22;58320;48.804;9.252;2024-02-26T00:38:20;7.50;64.70
70734;DHT22;58320;48.804;9.252;2024-02-26T00:40:46;7.50;64.30
70734;DHT22;58320;48.804;9.252;2024-02-26T00:43:12;7.50;64.20
70734;DHT22;58320;48.804;9.252;2024-02-26T00:45:38;7.50;64.60
70734;DHT22;58320;48.804;9.252;2024-02-26T00:48:04;7.50;64.80
70734;DHT22;58320;48.804;9.252;2024-02-26T00:50:31;7.50;64.90
70734;DHT22;58320;48.804;9.252;2024-02-26T00:52:57;7.50;65.20
70734;DHT22;58320;48.804;9.252;2024-02-26T00:55:23;7.50;65.40
70734;DHT22;58320;48.804;9.252;2024-02-26T00:57:48;7.50;65.50
70734;DHT22;58320;48.804;9.252;2024-02-26T01:00:14;7.50;65.50
70734;DHT22;58320;48.804;9.252;2024-02-26T01:02:40;7.50;65.10
70734;DHT22;58320;48.804;9.252;2024-02-26T01:05:07;7.50;64.80
70734;DHT22;58320;48.804;9.252;2024-02-26T01:07:35;7.50;65.00
70734;DHT22;58320;48.804;9.252;2024-02-26T01:10:02;7.50;65.20
70734;DHT22;58320;48.804;9.252;2024-02-26T01:12:28;7.50;64.70
70734;DHT22;58320;48.804;9.252;2024-02-26T01:14:54;7.40;64.90
70734;DHT22;58320;48.804;9.252;2024-02-26T01:17:20;7.40;65.30
70734;DHT22;58320;48.804;9.252;2024-02-26T01:19:45;7.40;65.50
70734;DHT22;58320;48.804;9.252;2024-02-26T01:22:11;7.40;65.20
70734;DHT22;58320;48.804;9.252;2024-02-26T01:24:37;7.40;64.40
70734;DHT22;58320;48.804;9.252;2024-02-26T01:27:03;7.40;64.40
70734;DHT22;58320;48.804;9.252;2024-02-26T01:29:29;7.40;64.50
70734;DHT22;58320;48.804;9.252;2024-02-26T01:31:54;7.40;64.60
70734;DHT22;58320;48.804;9.252;2024-02-26T01:34:20;7.40;64.60
70734;DHT22;58320;48.804;9.252;2024-02-26T01:36:46;7.40;64.70
70734;DHT22;58320;48.804;9.252;2024-02-26T01:39:11;7.40;64.60
70734;DHT22;58320;48.804;9.252;2024-02-26T01:41:38;7.40;64.60
70734;DHT22;58320;48.804;9.252;2024-02-26T01:44:05;7.40;64.70
70734;DHT22;58320;48.804;9.252;2024-02-26T01:46:32;7.40;65.20
70734;DHT22;58320;48.804;9.252;2024-02-26T01:49:01;7.30;65.20
70734;DHT22;58320;48.804;9.252;2024-02-26T01:51:27;7.30;64.60
70734;DHT22;58320;48.804;9.252;2024-02-26T01:53:53;7.30;64.40
70734;DHT22;58320;48.804;9.252;2024-02-26T01:56:20;7.30;64.50
70734;DHT22;58320;48.804;9.252;2024-02-26T01:58:46;7.30;64.60
70734;DHT22;58320;48.804;9.252;2024-02-26T02:01:15;7.30;64.80
70734;DHT22;58320;48.804;9.252;2024-02-26T02:03:41;7.30;65.00
70734;DHT22;58320;48.804;9.252;2024-02-26T02:06:08;7.30;65.20
70734;DHT22;58320;48.804;9.252;2024-02-26T02:08:34;7.30;65.10
70734;DHT22;58320;48.804;9.252;2024-02-26T02:11:00;7.30;64.90
70734;DHT22;58320;48.804;9.252;2024-02-26T02:13:26;7.30;65.00
70734;DHT22;58320;48.804;9.252;2024-02-26T02:15:52;7.30;64.90
70734;DHT22;58320;48.804;9.252;2024-02-26T02:18:19;7.30;65.50
70734;DHT22;58320;48.804;9.252;2024-02-26T02:20:45;7.30;66.30
70734;DHT22;58320;48.804;9.252;2024-02-26T02:23:10;7.30;65.90
70734;DHT22;58320;48.804;9.252;2024-02-26T02:25:36;7.30;65.60
70734;DHT22;58320;48.804;9.252;2024-02-26T02:28:02;7.20;66.10
70734;DHT22;58320;48.804;9.252;2024-02-26T02:30:29;7.20;65.60
70734;DHT22;58320;48.804;9.252;2024-02-26T02:32:55;7.20;65.50
70734;DHT22;58320;48.804;9.252;2024-02-26T02:35:22;7.20;65.50
70734;DHT22;58320;48.804;9.252;2024-02-26T02:37:51;7.20;65.70
70734;DHT22;58320;48.804;9.252;2024-02-26T02:40:17;7.20;66.20
70734;DHT22;58320;48.804;9.252;2024-02-26T02:42:43;7.20;65.80
70734;DHT22;58320;48.804;9.252;2024-02-26T02:45:09;7.20;65.40
70734;DHT22;58320;48.804;9.252;2024-02-26T02:47:37;7.30;65.10
70734;DHT22;58320;48.804;9.252;2024-02-26T02:50:04;7.30;65.00
70734;DHT22;58320;48.804;9.252;2024-02-26T02:52:30;7.30;65.40
70734;DHT22;58320;48.804;9.252;2024-02-26T02:54:56;7.40;65.30
70734;DHT22;58320;48.804;9.252;2024-02-26T02:57:22;7.40;65.50
70734;DHT22;58320;48.804;9.252;2024-02-26T02:59:47;7.40;66.90
70734;DHT22;58320;48.804;9.252;2024-02-26T03:02:13;7.30;66.80
70734;DHT22;58320;48.804;9.252;2024-02-26T03:04:39;7.30;66.80
70734;DHT22;58320;48.804;9.252;2024-02-26T03:07:05;7.30;66.90
70734;DHT22;58320;48.804;9.252;2024-02-26T03:09:31;7.30;67.00
70734;DHT22;58320;48.804;9.252;2024-02-26T03:11:56;7.30;67.70
70734;DHT22;58320;48.804;9.252;2024-02-26T03:14:22;7.20;68.00
70734;DHT22;58320;48.804;9.252;2024-02-26T03:16:48;7.20;67.90
70734;DHT22;58320;48.804;9.252;2024-02-26T03:19:16;7.30;67.90
70734;DHT22;58320;48.804;9.252;2024-02-26T03:21:42;7.20;67.80
70734;DHT22;58320;48.804;9.252;2024-02-26T03:24:08;7.20;69.50
70734;DHT22;58320;48.804;9.252;2024-02-26T03:26:37;7.20;68.80
70734;DHT22;58320;48.804;9.252;2024-02-26T03:29:03;7.20;66.90
70734;DHT22;58320;48.804;9.252;2024-02-26T03:31:30;7.20;66.00
70734;DHT22;58320;48.804;9.252;2024-02-26T03:33:56;7.30;65.90
70734;DHT22;58320;48.804;9.252;2024-02-26T03:36:21;7.30;66.50
70734;DHT22;58320;48.804;9.252;2024-02-26T03:38:48;7.30;66.20
70734;DHT22;58320;48.804;9.252;2024-02-26T03:41:14;7.30;66.00
70734;DHT22;58320;48.804;9.252;2024-02-26T03:43:40;7.30;65.60
70734;DHT22;58320;48.804;9.252;2024-02-26T03:46:09;7.30;66.00
70734;DHT22;58320;48.804;9.252;2024-02-26T03:48:36;7.30;66.40
70734;DHT22;58320;48.804;9.252;2024-02-26T03:51:03;7.30;66.60
70734;DHT22;58320;48.804;9.252;2024-02-26T03:53:29;7.20;67.30
70734;DHT22;58320;48.804;9.252;2024-02-26T03:55:54;7.20;67.90
70734;DHT22;58320;48.804;9.252;2024-02-26T03:58:21;7.20;68.90
70734;DHT22;58320;48.804;9.252;2024-02-26T04:03:33;7.00;69.40
70734;DHT22;58320;48.804;9.252;2024-02-26T04:05:59;7.00;69.40
70734;DHT22;58320;48.804;9.252;2024-02-26T04:08:25;7.00;69.00
70734;DHT22;58320;48.804;9.252;2024-02-26T04:10:51;7.00;68.80
70734;DHT22;58320;48.804;9.252;2024-02-26T04:13:17;6.90;68.70
70734;DHT22;58320;48.804;9.252;2024-02-26T04:15:43;6.90;67.80
70734;DHT22;58320;48.804;9.252;2024-02-26T04:18:09;7.00;67.80
70734;DHT22;58320;48.804;9.252;2024-02-26T04:20:35;6.90;68.00
70734;DHT22;58320;48.804;9.252;2024-02-26T04:23:02;7.00;67.40
70734;DHT22;58320;48.804;9.252;2024-02-26T04:25:28;7.00;67.00
70734;DHT22;58320;48.804;9.252;2024-02-26T04:27:54;7.00;66.90
70734;DHT22;58320;48.804;9.252;2024-02-26T04:30:19;7.10;67.10
70734;DHT22;58320;48.804;9.252;2024-02-26T04:32:45;7.00;67.70
70734;DHT22;58320;48.804;9.252;2024-02-26T04:35:11;7.00;67.80
70734;DHT22;58320;48.804;9.252;2024-02-26T04:37:37;7.00;66.80
70734;DHT22;58320;48.804;9.252;2024-02-26T04:40:03;7.00;65.50
70734;DHT22;58320;48.804;9.252;2024-02-26T04:42:30;7.10;65.10
70734;DHT22;58320;48.804;9.252;2024-02-26T04:44:55;7.10;64.10
70734;DHT22;58320;48.804;9.252;2024-02-26T04:47:21;7.20;64.10
70734;DHT22;58320;48.804;9.252;2024-02-26T04:49:49;7.20;63.80
70734;DHT22;58320;48.804;9.252;2024-02-26T04:52:15;7.30;63.50
70734;DHT22;58320;48.804;9.252;2024-02-26T04:54:41;7.30;63.30
70734;DHT22;58320;48.804;9.252;2024-02-26T04:57:06;7.30;63.30
70734;DHT22;58320;48.804;9.252;2024-02-26T04:59:32;7.30;65.00
70734;DHT22;58320;48.804;9.252;2024-02-26T05:01:58;7.30;66.40
70734;DHT22;58320;48.804;9.252;2024-02-26T05:04:24;7.20;67.10
70734;DHT22;58320;48.804;9.252;2024-02-26T05:06:49;7.20;67.40
70734;DHT22;58320;48.804;9.252;2024-02-26T05:09:15;7.20;66.80
70734;DHT22;58320;48.804;9.252;2024-02-26T05:11:41;7.10;66.50
70734;DHT22;58320;48.804;9.252;2024-02-26T05:14:06;7.10;66.20
70734;DHT22;58320;48.804;9.252;2024-02-26T05:16:32;7.10;66.10
70734;DHT22;58320;48.804;9.252;2024-02-26T05:18:58;7.20;65.60
70734;DHT22;58320;48.804;9.252;2024-02-26T05:21:24;7.20;65.70
70734;DHT22;58320;48.804;9.252;2024-02-26T05:23:49;7.20;65.50
70734;DHT22;58320;48.804;9.252;2024-02-26T05:26:22;7.20;65.60
70734;DHT22;58320;48.804;9.252;2024-02-26T05:28:48;7.20;65.60
70734;DHT22;58320;48.804;9.252;2024-02-26T05:31:15;7.20;65.70
70734;DHT22;58320;48.804;9.252;2024-02-26T05:33:41;7.20;66.00
70734;DHT22;58320;48.804;9.252;2024-02-26T05:36:07;7.10;66.40
70734;DHT22;58320;48.804;9.252;2024-02-26T05:38:33;7.20;67.00
70734;DHT22;58320;48.804;9.252;2024-02-26T05:40:59;7.10;67.70
70734;DHT22;58320;48.804;9.252;2024-02-26T05:43:25;7.10;68.00
70734;DHT22;58320;48.804;9.252;2024-02-26T05:45:52;7.10;68.50
70734;DHT22;58320;48.804;9.252;2024-02-26T05:48:18;7.10;68.10
70734;DHT22;58320;48.804;9.252;2024-02-26T05:50:45;7.10;68.50
70734;DHT22;58320;48.804;9.252;2024-02-26T05:53:11;7.10;68.90
70734;DHT22;58320;48.804;9.252;2024-02-26T05:55:37;7.10;68.70
70734;DHT22;58320;48.804;9.252;2024-02-26T05:58:03;7.00;68.60
70734;DHT22;58320;48.804;9.252;2024-02-26T06:00:29;7.10;68.40
70734;DHT22;58320;48.804;9.252;2024-02-26T06:02:55;7.10;69.20
70734;DHT22;58320;48.804;9.252;2024-02-26T06:05:21;7.10;69.40
70734;DHT22;58320;48.804;9.252;2024-02-26T06:07:46;7.10;69.50
70734;DHT22;58320;48.804;9.252;2024-02-26T06:10:12;7.00;70.10
70734;DHT22;58320;48.804;9.252;2024-02-26T06:12:39;7.00;70.40
70734;DHT22;58320;48.804;9.252;2024-02-26T06:15:06;7.00;71.50
70734;DHT22;58320;48.804;9.252;2024-02-26T06:17:32;7.00;72.10
70734;DHT22;58320;48.804;9.252;2024-02-26T06:19:58;6.90;73.30
70734;DHT22;58320;48.804;9.252;2024-02-26T06:22:25;6.90;74.10
70734;DHT22;58320;48.804;9.252;2024-02-26T06:24:51;6.80;75.80
70734;DHT22;58320;48.804;9.252;2024-02-26T06:27:17;6.70;77.90
70734;DHT22;58320;48.804;9.252;2024-02-26T06:29:42;6.70;79.40
70734;DHT22;58320;48.804;9.252;2024-02-26T06:32:08;6.60;79.00
70734;DHT22;58320;48.804;9.252;2024-02-26T06:34:34;6.60;78.30
70734;DHT22;58320;48.804;9.252;2024-02-26T06:36:59;6.70;78.50
70734;DHT22;58320;48.804;9.252;2024-02-26T06:39:25;6.70;76.90
70734;DHT22;58320;48.804;9.252;2024-02-26T06:41:51;6.70;75.50
70734;DHT22;58320;48.804;9.252;2024-02-26T06:44:23;6.70;75.40
70734;DHT22;58320;48.804;9.252;2024-02-26T06:46:50;6.70;75.00
70734;DHT22;58320;48.804;9.252;2024-02-26T06:49:15;6.80;76.30
70734;DHT22;58320;48.804;9.252;2024-02-26T06:51:41;6.80;74.00
70734;DHT22;58320;48.804;9.252;2024-02-26T06:54:07;6.80;75.20
70734;DHT22;58320;48.804;9.252;2024-02-26T06:56:32;6.90;75.70
70734;DHT22;58320;48.804;9.252;2024-02-26T06:58:58;6.90;75.50
70734;DHT22;58320;48.804;9.252;2024-02-26T07:01:24;6.90;75.10
70734;DHT22;58320;48.804;9.252;2024-02-26T07:03:50;6.90;75.00
70734;DHT22;58320;48.804;9.252;2024-02-26T07:06:15;7.00;75.00
70734;DHT22;58320;48.804;9.252;2024-02-26T07:08:41;7.00;75.10
70734;DHT22;58320;48.804;9.252;2024-02-26T07:11:07;7.10;75.00
70734;DHT22;58320;48.804;9.252;2024-02-26T07:13:34;7.20;74.90
70734;DHT22;58320;48.804;9.252;2024-02-26T07:16:00;7.20;75.20
70734;DHT22;58320;48.804;9.252;2024-02-26T07:18:25;7.30;75.10
70734;DHT22;58320;48.804;9.252;2024-02-26T07:20:51;7.40;74.30
70734;DHT22;58320;48.804;9.252;2024-02-26T07:23:17;7.50;73.70
70734;DHT22;58320;48.804;9.252;2024-02-26T07:25:43;7.50;72.80
70734;DHT22;58320;48.804;9.252;2024-02-26T07:28:09;7.60;73.80
70734;DHT22;58320;48.804;9.252;2024-02-26T07:30:36;7.60;74.50
70734;DHT22;58320;48.804;9.252;2024-02-26T07:33:01;7.60;74.50
70734;DHT22;58320;48.804;9.252;2024-02-26T07:35:27;7.60;73.10
70734;DHT22;58320;48.804;9.252;2024-02-26T07:37:53;7.60;72.50
70734;DHT22;58320;48.804;9.252;2024-02-26T07:40:19;7.60;72.30
70734;DHT22;58320;48.804;9.252;2024-02-26T07:42:45;7.60;71.50
70734;DHT22;58320;48.804;9.252;2024-02-26T07:45:10;7.60;71.40
70734;DHT22;58320;48.804;9.252;2024-02-26T07:47:36;7.70;71.50
70734;DHT22;58320;48.804;9.252;2024-02-26T07:50:07;7.70;71.00
70734;DHT22;58320;48.804;9.252;2024-02-26T07:52:33;7.70;71.80
70734;DHT22;58320;48.804;9.252;2024-02-26T07:54:59;7.90;71.20
70734;DHT22;58320;48.804;9.252;2024-02-26T07:57:24;7.90;70.70
70734;DHT22;58320;48.804;9.252;2024-02-26T07:59:50;7.90;70.20
70734;DHT22;58320;48.804;9.252;2024-02-26T08:02:16;8.00;69.30
70734;DHT22;58320;48.804;9.252;2024-02-26T08:04:42;8.00;68.20
70734;DHT22;58320;48.804;9.252;2024-02-26T08:07:08;8.10;69.10
70734;DHT22;58320;48.804;9.252;2024-02-26T08:09:34;8.30;68.60
70734;DHT22;58320;48.804;9.252;2024-02-26T08:12:00;8.40;68.10
70734;DHT22;58320;48.804;9.252;2024-02-26T08:14:25;8.50;68.60
70734;DHT22;58320;48.804;9.252;2024-02-26T08:16:51;8.50;69.00
70734;DHT22;58320;48.804;9.252;2024-02-26T08:19:17;8.60;69.40
70734;DHT22;58320;48.804;9.252;2024-02-26T08:21:43;8.60;69.30
70734;DHT22;58320;48.804;9.252;2024-02-26T08:24:08;8.70;69.00
70734;DHT22;58320;48.804;9.252;2024-02-26T08:26:34;8.80;68.70
70734;DHT22;58320;48.804;9.252;2024-02-26T08:29:00;8.70;69.00
70734;DHT22;58320;48.804;9.252;2024-02-26T08:31:26;8.60;69.30
70734;DHT22;58320;48.804;9.252;2024-02-26T08:33:53;8.70;69.70
70734;DHT22;58320;48.804;9.252;2024-02-26T08:36:19;8.70;69.60
70734;DHT22;58320;48.804;9.252;2024-02-26T08:38:44;8.80;69.70
70734;DHT22;58320;48.804;9.252;2024-02-26T08:41:10;8.90;69.80
70734;DHT22;58320;48.804;9.252;2024-02-26T08:43:36;9.10;69.60
70734;DHT22;58320;48.804;9.252;2024-02-26T08:46:01;9.00;68.20
70734;DHT22;58320;48.804;9.252;2024-02-26T08:48:28;9.00;67.90
70734;DHT22;58320;48.804;9.252;2024-02-26T08:50:54;9.00;67.70
70734;DHT22;58320;48.804;9.252;2024-02-26T08:53:20;9.00;68.10
70734;DHT22;58320;48.804;9.252;2024-02-26T08:55:46;8.90;68.50
70734;DHT22;58320;48.804;9.252;2024-02-26T08:58:12;9.00;68.50
70734;DHT22;58320;48.804;9.252;2024-02-26T09:00:37;9.10;68.90
70734;DHT22;58320;48.804;9.252;2024-02-26T09:03:03;9.30;68.90
70734;DHT22;58320;48.804;9.252;2024-02-26T09:05:30;9.30;68.80
70734;DHT22;58320;48.804;9.252;2024-02-26T09:07:55;9.40;69.10
70734;DHT22;58320;48.804;9.252;2024-02-26T09:10:21;9.50;67.90
70734;DHT22;58320;48.804;9.252;2024-02-26T09:12:47;9.40;67.40
70734;DHT22;58320;48.804;9.252;2024-02-26T09:15:13;9.40;67.80
70734;DHT22;58320;48.804;9.252;2024-02-26T09:17:39;9.40;67.70
70734;DHT22;58320;48.804;9.252;2024-02-26T09:20:05;9.50;67.00
70734;DHT22;58320;48.804;9.252;2024-02-26T09:22:34;9.60;66.10
70734;DHT22;58320;48.804;9.252;2024-02-26T09:25:00;9.70;65.70
70734;DHT22;58320;48.804;9.252;2024-02-26T09:27:25;9.70;65.80
70734;DHT22;58320;48.804;9.252;2024-02-26T09:29:51;9.70;65.70
70734;DHT22;58320;48.804;9.252;2024-02-26T09:32:17;9.80;66.40
70734;DHT22;58320;48.804;9.252;2024-02-26T09:34:43;9.80;66.40
70734;DHT22;58320;48.804;9.252;2024-02-26T09:37:09;9.90;66.80
70734;DHT22;58320;48.804;9.252;2024-02-26T09:39:34;10.10;65.60
70734;DHT22;58320;48.804;9.252;2024-02-26T09:42:04;10.20;65.80
70734;DHT22;58320;48.804;9.252;2024-02-26T09:44:30;10.30;64.60
70734;DHT22;58320;48.804;9.252;2024-02-26T09:46:59;10.20;65.30
70734;DHT22;58320;48.804;9.252;2024-02-26T09:49:24;10.00;66.40
70734;DHT22;58320;48.804;9.252;2024-02-26T09:51:51;9.80;66.70
70734;DHT22;58320;48.804;9.252;2024-02-26T09:54:19;9.90;66.80
70734;DHT22;58320;48.804;9.252;2024-02-26T09:56:48;10.10;67.20
70734;DHT22;58320;48.804;9.252;2024-02-26T09:59:17;10.20;67.30
70734;DHT22;58320;48.804;9.252;2024-02-26T10:01:44;10.40;66.40
70734;DHT22;58320;48.804;9.252;2024-02-26T10:04:12;10.50;65.90
70734;DHT22;58320;48.804;9.252;2024-02-26T10:06:39;10.80;65.60
70734;DHT22;58320;48.804;9.252;2024-02-26T10:09:06;11.10;64.30
70734;DHT22;58320;48.804;9.252;2024-02-26T10:11:35;11.50;63.60
70734;DHT22;58320;48.804;9.252;2024-02-26T10:14:01;11.90;62.20
70734;DHT22;58320;48.804;9.252;2024-02-26T10:16:27;12.20;61.00
70734;DHT22;58320;48.804;9.252;2024-02-26T10:18:53;12.30;58.40
70734;DHT22;58320;48.804;9.252;2024-02-26T10:21:22;12.50;58.10
70734;DHT22;58320;48.804;9.252;2024-02-26T10:23:49;12.90;56.90
70734;DHT22;58320;48.804;9.252;2024-02-26T10:26:16;12.90;57.40
70734;DHT22;58320;48.804;9.252;2024-02-26T10:28:43;12.70;56.60
70734;DHT22;58320;48.804;9.252;2024-02-26T10:31:10;12.80;57.00
70734;DHT22;58320;48.804;9.252;2024-02-26T10:33:37;12.80;57.10
70734;DHT22;58320;48.804;9.252;2024-02-26T10:36:05;12.90;55.60
70734;DHT22;58320;48.804;9.252;2024-02-26T10:38:32;12.90;55.70
70734;DHT22;58320;48.804;9.252;2024-02-26T10:40:58;13.30;54.80
70734;DHT22;58320;48.804;9.252;2024-02-26T10:43:25;13.40;55.10
70734;DHT22;58320;48.804;9.252;2024-02-26T10:45:51;13.60;54.10
70734;DHT22;58320;48.804;9.252;2024-02-26T10:48:17;13.40;53.60
70734;DHT22;58320;48.804;9.252;2024-02-26T10:50:43;13.60;53.50
70734;DHT22;58320;48.804;9.252;2024-02-26T10:53:21;13.80;53.40
70734;DHT22;58320;48.804;9.252;2024-02-26T10:55:59;13.60;53.20
70734;DHT22;58320;48.804;9.252;2024-02-26T10:58:27;13.80;52.90
70734;DHT22;58320;48.804;9.252;2024-02-26T11:00:56;13.90;52.80
70734;DHT22;58320;48.804;9.252;2024-02-26T11:03:23;14.00;51.80
70734;DHT22;58320;48.804;9.252;2024-02-26T11:05:50;14.30;52.40
70734;DHT22;58320;48.804;9.252;2024-02-26T11:08:18;14.30;51.90
70734;DHT22;58320;48.804;9.252;2024-02-26T11:10:47;14.30;50.50
70734;DHT22;58320;48.804;9.252;2024-02-26T11:13:14;14.40;50.60
70734;DHT22;58320;48.804;9.252;2024-02-26T11:15:43;14.50;49.80
70734;DHT22;58320;48.804;9.252;2024-02-26T11:18:10;14.80;48.80
70734;DHT22;58320;48.804;9.252;2024-02-26T11:20:39;15.30;48.60
70734;DHT22;58320;48.804;9.252;2024-02-26T11:23:07;16.00;48.00
70734;DHT22;58320;48.804;9.252;2024-02-26T11:25:36;16.70;45.70
70734;DHT22;58320;48.804;9.252;2024-02-26T11:28:06;16.90;44.80
70734;DHT22;58320;48.804;9.252;2024-02-26T11:30:37;16.80;44.70
70734;DHT22;58320;48.804;9.252;2024-02-26T11:33:07;16.20;45.90
70734;DHT22;58320;48.804;9.252;2024-02-26T11:35:36;15.90;46.60
70734;DHT22;58320;48.804;9.252;2024-02-26T11:38:03;15.70;47.60
70734;DHT22;58320;48.804;9.252;2024-02-26T11:40:31;15.60;47.50
70734;DHT22;58320;48.804;9.252;2024-02-26T11:42:58;15.70;47.90
70734;DHT22;58320;48.804;9.252;2024-02-26T11:45:56;15.90;46.70
70734;DHT22;58320;48.804;9.252;2024-02-26T11:48:25;15.90;46.20
70734;DHT22;58320;48.804;9.252;2024-02-26T11:50:53;15.50;46.50
70734;DHT22;58320;48.804;9.252;2024-02-26T11:53:32;15.00;47.60
70734;DHT22;58320;48.804;9.252;2024-02-26T11:59:37;15.20;48.30
70734;DHT22;58320;48.804;9.252;2024-02-26T12:02:03;15.40;48.20
70734;DHT22;58320;48.804;9.252;2024-02-26T12:04:30;15.30;47.80
70734;DHT22;58320;48.804;9.252;2024-02-26T12:06:58;15.60;47.90
70734;DHT22;58320;48.804;9.252;2024-02-26T12:09:39;16.10;46.40
70734;DHT22;58320;48.804;9.252;2024-02-26T12:12:07;16.30;45.50
70734;DHT22;58320;48.804;9.252;2024-02-26T12:14:34;16.60;45.10
70734;DHT22;58320;48.804;9.252;2024-02-26T12:17:03;16.70;44.20
70734;DHT22;58320;48.804;9.252;2024-02-26T12:19:33;16.40;44.40
70734;DHT22;58320;48.804;9.252;2024-02-26T12:22:00;15.90;45.40
70734;DHT22;58320;48.804;9.252;2024-02-26T12:24:26;15.50;46.80
70734;DHT22;58320;48.804;9.252;2024-02-26T12:26:51;15.40;47.10
70734;DHT22;58320;48.804;9.252;2024-02-26T12:29:17;15.10;47.20
70734;DHT22;58320;48.804;9.252;2024-02-26T12:31:43;15.10;47.00
70734;DHT22;58320;48.804;9.252;2024-02-26T12:34:09;15.10;46.90
70734;DHT22;58320;48.804;9.252;2024-02-26T12:36:36;15.00;47.30
70734;DHT22;58320;48.804;9.252;2024-02-26T12:39:04;15.00;47.50
70734;DHT22;58320;48.804;9.252;2024-02-26T12:41:35;14.90;46.90
70734;DHT22;58320;48.804;9.252;2024-02-26T12:44:01;14.70;47.80
70734;DHT22;58320;48.804;9.252;2024-02-26T12:46:27;14.70;47.50
70734;DHT22;58320;48.804;9.252;2024-02-26T12:48:55;15.00;47.90
70734;DHT22;58320;48.804;9.252;2024-02-26T12:51:23;15.40;47.20
70734;DHT22;58320;48.804;9.252;2024-02-26T12:53:50;15.80;46.00
70734;DHT22;58320;48.804;9.252;2024-02-26T12:56:18;16.50;45.00
70734;DHT22;58320;48.804;9.252;2024-02-26T12:58:44;17.40;42.80
70734;DHT22;58320;48.804;9.252;2024-02-26T13:01:15;17.60;42.50
70734;DHT22;58320;48.804;9.252;2024-02-26T13:03:42;17.70;42.40
70734;DHT22;58320;48.804;9.252;2024-02-26T13:06:09;17.80;42.40
70734;DHT22;58320;48.804;9.252;2024-02-26T13:08:35;17.40;42.30
70734;DHT22;58320;48.804;9.252;2024-02-26T13:11:01;16.90;43.20
70734;DHT22;58320;48.804;9.252;2024-02-26T13:13:27;16.90;42.80
70734;DHT22;58320;48.804;9.252;2024-02-26T13:16:07;16.80;43.00
70734;DHT22;58320;48.804;9.252;2024-02-26T13:18:36;16.70;43.50
70734;DHT22;58320;48.804;9.252;2024-02-26T13:23:43;16.50;43.40
70734;DHT22;58320;48.804;9.252;2024-02-26T13:26:13;16.40;43.60
70734;DHT22;58320;48.804;9.252;2024-02-26T13:28:40;16.30;43.80
70734;DHT22;58320;48.804;9.252;2024-02-26T13:31:06;16.30;43.90
70734;DHT22;58320;48.804;9.252;2024-02-26T13:33:33;16.20;43.80
70734;DHT22;58320;48.804;9.252;2024-02-26T13:36:00;16.20;44.40
70734;DHT22;58320;48.804;9.252;2024-02-26T13:38:26;16.30;44.20
70734;DHT22;58320;48.804;9.252;2024-02-26T13:40:54;16.20;45.00
70734;DHT22;58320;48.804;9.252;2024-02-26T13:43:20;16.30;45.10
70734;DHT22;58320;48.804;9.252;2024-02-26T13:45:46;16.20;45.40
70734;DHT22;58320;48.804;9.252;2024-02-26T13:48:13;16.10;46.60
70734;DHT22;58320;48.804;9.252;2024-02-26T13:50:40;16.20;46.20
70734;DHT22;58320;48.804;9.252;2024-02-26T13:53:08;16.40;45.50
70734;DHT22;58320;48.804;9.252;2024-02-26T13:55:34;16.40;46.10
70734;DHT22;58320;48.804;9.252;2024-02-26T13:58:00;16.50;46.30
70734;DHT22;58320;48.804;9.252;2024-02-26T14:00:27;16.70;45.30
70734;DHT22;58320;48.804;9.252;2024-02-26T14:02:54;16.80;45.80
70734;DHT22;58320;48.804;9.252;2024-02-26T14:05:20;16.70;44.50
70734;DHT22;58320;48.804;9.252;2024-02-26T14:07:46;16.80;44.10
70734;DHT22;58320;48.804;9.252;2024-02-26T14:10:12;16.90;45.10
70734;DHT22;58320;48.804;9.252;2024-02-26T14:12:38;17.30;44.60
70734;DHT22;58320;48.804;9.252;2024-02-26T14:15:06;17.60;44.10
70734;DHT22;58320;48.804;9.252;2024-02-26T14:17:32;18.10;42.60
70734;DHT22;58320;48.804;9.252;2024-02-26T14:19:58;18.20;42.10
70734;DHT22;58320;48.804;9.252;2024-02-26T14:22:24;18.20;42.30
70734;DHT22;58320;48.804;9.252;2024-02-26T14:24:52;18.00;42.20
70734;DHT22;58320;48.804;9.252;2024-02-26T14:27:18;18.20;41.90
70734;DHT22;58320;48.804;9.252;2024-02-26T14:29:46;17.60;41.60
70734;DHT22;58320;48.804;9.252;2024-02-26T14:32:11;17.90;42.20
70734;DHT22;58320;48.804;9.252;2024-02-26T14:34:38;18.10;41.90
70734;DHT22;58320;48.804;9.252;2024-02-26T14:37:04;18.60;41.10
70734;DHT22;58320;48.804;9.252;2024-02-26T14:39:31;19.10;40.90
70734;DHT22;58320;48.804;9.252;2024-02-26T14:41:58;19.00;39.90
70734;DHT22;58320;48.804;9.252;2024-02-26T14:44:24;19.20;39.70
70734;DHT22;58320;48.804;9.252;2024-02-26T14:46:51;19.20;39.40
70734;DHT22;58320;48.804;9.252;2024-02-26T14:49:17;18.70;39.00
70734;DHT22;58320;48.804;9.252;2024-02-26T14:51:43;17.80;40.70
70734;DHT22;58320;48.804;9.252;2024-02-26T14:54:13;17.30;41.10
70734;DHT22;58320;48.804;9.252;2024-02-26T14:56:39;17.30;42.10
70734;DHT22;58320;48.804;9.252;2024-02-26T14:59:06;17.40;42.50
70734;DHT22;58320;48.804;9.252;2024-02-26T15:01:32;17.50;41.80
70734;DHT22;58320;48.804;9.252;2024-02-26T15:03:58;17.50;42.80
70734;DHT22;58320;48.804;9.252;2024-02-26T15:06:25;17.40;43.00
70734;DHT22;58320;48.804;9.252;2024-02-26T15:08:51;16.90;43.60
70734;DHT22;58320;48.804;9.252;2024-02-26T15:11:17;16.60;43.60
70734;DHT22;58320;48.804;9.252;2024-02-26T15:13:43;16.30;44.30
70734;DHT22;58320;48.804;9.252;2024-02-26T15:16:17;15.70;45.20
70734;DHT22;58320;48.804;9.252;2024-02-26T15:18:48;15.40;46.80
70734;DHT22;58320;48.804;9.252;2024-02-26T15:21:14;15.30;47.20
70734;DHT22;58320;48.804;9.252;2024-02-26T15:23:42;15.20;47.80
70734;DHT22;58320;48.804;9.252;2024-02-26T15:26:10;15.00;48.70
70734;DHT22;58320;48.804;9.252;2024-02-26T15:28:36;14.80;49.40
70734;DHT22;58320;48.804;9.252;2024-02-26T15:31:01;14.50;49.70
70734;DHT22;58320;48.804;9.252;2024-02-26T15:33:27;14.40;50.30
70734;DHT22;58320;48.804;9.252;2024-02-26T15:35:53;14.40;50.50
70734;DHT22;58320;48.804;9.252;2024-02-26T15:38:19;14.20;50.40
70734;DHT22;58320;48.804;9.252;2024-02-26T15:40:45;14.10;50.50
70734;DHT22;58320;48.804;9.252;2024-02-26T15:43:12;14.10;51.40
70734;DHT22;58320;48.804;9.252;2024-02-26T15:45:38;14.00;51.40